Time;durP1;ratioP1;P1;durP2;ratioP2;P2;SDS_P1;SDS_P2;PMS_P1;PMS_P2;Temp;Humidity;BMP_temperature;BMP_pressure;BME280_temperature;BME280_humidity;BME280_pressure;Samples;Min_cycle;Max_cycle;Signal;HPM_P1;HPM_P2
2021/07/30 00:00:52;;;;;;;4.35;2.90;;;;;;;;;;8191721;28;20377;-73
2021/07/30 00:04:58;;;;;;;5.80;3.35;;;;;;;;;;8217622;28;20510;-74
2021/07/30 00:09:03;;;;;;;4.72;2.75;;;;;;;;;;8224470;28;20235;-73
2021/07/30 00:13:08;;;;;;;9.70;3.10;;;;;;;;;;8224801;28;20468;-73
2021/07/30 00:17:13;;;;;;;4.28;2.80;;;;;;;;;;8225684;28;20372;-74
2021/07/30 00:21:19;;;;;;;6.82;2.90;;;;;;;;;;8224100;28;20472;-73
2021/07/30 00:25:32;;;;;;;6.50;3.17;;;;;;;;;;8225086;28;20453;-73
2021/07/30 00:29:38;;;;;;;6.03;3.13;;;;;;;;;;8223047;28;20066;-73
2021/07/30 00:33:43;;;;;;;7.07;3.25;;;;;;;;;;8208092;28;20363;-74
2021/07/30 00:37:48;;;;;;;8.02;3.60;;;;;;;;;;8224174;28;20487;-74
2021/07/30 00:41:53;;;;;;;8.43;3.65;;;;;;;;;;8224857;28;20053;-72
2021/07/30 00:46:00;;;;;;;9.57;3.65;;;;;;;;;;8222196;28;20464;-74
2021/07/30 00:50:06;;;;;;;10.40;3.65;;;;;;;;;;8225519;28;20071;-73
2021/07/30 00:54:12;;;;;;;9.88;3.20;;;;;;;;;;8229880;28;20329;-74
2021/07/30 00:58:17;;;;;;;8.13;3.60;;;;;;;;;;8231860;28;20367;-73
2021/07/30 01:02:23;;;;;;;6.13;3.20;;;;;;;;;;8230885;28;20399;-74
2021/07/30 01:06:29;;;;;;;6.20;2.88;;;;;;;;;;8213859;28;20053;-73
2021/07/30 01:10:34;;;;;;;7.00;3.00;;;;;;;;;;8230729;28;20487;-73
2021/07/30 01:14:39;;;;;;;4.70;3.10;;;;;;;;;;8232530;28;20457;-73
2021/07/30 01:18:45;;;;;;;4.78;2.70;;;;;;;;;;8231131;28;20384;-73
2021/07/30 01:23:02;;;;;;;6.00;3.10;;;;;;;;;;8230305;28;20376;-73
2021/07/30 01:27:06;;;;;;;5.57;2.70;;;;;;;;;;8229089;28;20503;-73
2021/07/30 01:31:11;;;;;;;5.10;2.80;;;;;;;;;;8231455;28;20461;-73
2021/07/30 01:35:17;;;;;;;6.85;3.50;;;;;;;;;;8229952;28;20049;-73
2021/07/30 01:39:22;;;;;;;4.63;3.05;;;;;;;;;;8229928;28;20042;-73
2021/07/30 01:43:27;;;;;;;6.47;3.28;;;;;;;;;;8229707;28;20346;-73
2021/07/30 01:47:34;;;;;;;9.07;3.50;;;;;;;;;;8231536;28;20038;-73
2021/07/30 01:51:40;;;;;;;16.13;3.27;;;;;;;;;;8231217;28;20344;-73
2021/07/30 01:55:45;;;;;;;7.40;3.13;;;;;;;;;;8229707;28;20360;-73
2021/07/30 01:59:51;;;;;;;6.57;3.30;;;;;;;;;;8228712;28;20053;-73
2021/07/30 02:03:56;;;;;;;4.63;3.00;;;;;;;;;;8229242;28;20064;-73
2021/07/30 02:08:01;;;;;;;5.97;2.88;;;;;;;;;;8229972;28;20396;-73
2021/07/30 02:12:07;;;;;;;8.95;3.15;;;;;;;;;;8230026;28;20042;-73
2021/07/30 02:16:11;;;;;;;6.80;2.92;;;;;;;;;;8228258;28;20444;-73
2021/07/30 02:20:16;;;;;;;12.80;3.10;;;;;;;;;;8229129;28;20480;-73
2021/07/30 02:24:23;;;;;;;7.30;3.17;;;;;;;;;;8230023;28;20476;-73
2021/07/30 02:28:29;;;;;;;5.43;3.08;;;;;;;;;;8227328;28;20460;-74
2021/07/30 02:32:34;;;;;;;7.10;2.47;;;;;;;;;;8227956;28;20061;-73
2021/07/30 02:36:39;;;;;;;5.45;3.20;;;;;;;;;;8227030;28;20049;-74
2021/07/30 02:40:45;;;;;;;5.88;3.05;;;;;;;;;;8211238;28;20053;-74
2021/07/30 02:44:51;;;;;;;5.65;2.90;;;;;;;;;;8226268;28;20357;-74
2021/07/30 02:48:56;;;;;;;6.03;3.40;;;;;;;;;;8228971;28;20457;-74
2021/07/30 02:53:01;;;;;;;13.00;3.22;;;;;;;;;;8227597;28;20072;-73
2021/07/30 02:57:07;;;;;;;6.32;2.90;;;;;;;;;;8226912;28;20453;-73
2021/07/30 03:01:12;;;;;;;10.32;2.92;;;;;;;;;;8227635;28;20475;-73
2021/07/30 03:05:17;;;;;;;5.57;3.17;;;;;;;;;;8225358;28;20372;-73
2021/07/30 03:09:22;;;;;;;8.95;3.38;;;;;;;;;;8226694;28;20496;-73
2021/07/30 03:13:27;;;;;;;9.15;3.05;;;;;;;;;;8226692;28;20064;-73
2021/07/30 03:17:31;;;;;;;4.68;2.83;;;;;;;;;;8226062;28;20458;-73
2021/07/30 03:21:37;;;;;;;6.47;2.92;;;;;;;;;;8209264;28;20371;-73
2021/07/30 03:25:42;;;;;;;8.77;3.10;;;;;;;;;;8225827;28;20368;-73
2021/07/30 03:29:47;;;;;;;6.20;3.00;;;;;;;;;;8226342;28;20492;-72
2021/07/30 03:33:54;;;;;;;5.18;3.05;;;;;;;;;;8226153;28;20373;-73
2021/07/30 03:38:00;;;;;;;10.73;2.97;;;;;;;;;;8225559;28;20062;-73
2021/07/30 03:42:07;;;;;;;5.60;3.00;;;;;;;;;;8226860;28;20352;-74
2021/07/30 03:46:14;;;;;;;7.75;2.95;;;;;;;;;;8224823;28;20053;-73
2021/07/30 03:50:19;;;;;;;6.88;3.13;;;;;;;;;;8226220;28;20076;-73
2021/07/30 03:54:24;;;;;;;8.32;3.17;;;;;;;;;;8226143;28;20457;-73
2021/07/30 03:58:30;;;;;;;6.53;3.08;;;;;;;;;;8225695;28;20372;-73
2021/07/30 04:02:36;;;;;;;6.70;3.25;;;;;;;;;;8225854;28;20365;-73
2021/07/30 04:06:44;;;;;;;5.10;2.88;;;;;;;;;;8225002;28;20483;-72
2021/07/30 04:10:50;;;;;;;5.97;2.90;;;;;;;;;;8226203;28;20064;-74
2021/07/30 04:14:56;;;;;;;6.43;3.03;;;;;;;;;;8226585;28;20459;-73
2021/07/30 04:19:03;;;;;;;7.90;3.60;;;;;;;;;;8225214;28;20408;-73
2021/07/30 04:23:08;;;;;;;6.38;3.42;;;;;;;;;;8225294;28;20063;-73
2021/07/30 04:27:13;;;;;;;7.50;3.15;;;;;;;;;;8223052;28;20464;-73
2021/07/30 04:31:19;;;;;;;5.93;3.17;;;;;;;;;;8225653;28;20041;-73
2021/07/30 04:35:24;;;;;;;9.15;3.28;;;;;;;;;;8222858;28;20380;-72
2021/07/30 04:39:31;;;;;;;5.72;2.80;;;;;;;;;;8223798;28;20377;-73
2021/07/30 04:43:39;;;;;;;5.78;3.50;;;;;;;;;;8225231;28;20045;-72
2021/07/30 04:47:44;;;;;;;7.68;4.45;;;;;;;;;;8224926;28;20321;-72
2021/07/30 04:51:49;;;;;;;9.88;3.55;;;;;;;;;;8207736;28;20420;-72
2021/07/30 04:55:54;;;;;;;11.52;3.20;;;;;;;;;;8224986;28;20080;-73
2021/07/30 04:59:59;;;;;;;11.90;3.60;;;;;;;;;;8226351;28;20053;-72
2021/07/30 05:04:06;;;;;;;8.35;3.97;;;;;;;;;;8224116;28;20480;-72
2021/07/30 05:08:11;;;;;;;5.22;3.17;;;;;;;;;;8224218;28;20494;-72
2021/07/30 05:12:16;;;;;;;9.52;4.00;;;;;;;;;;8224581;28;20057;-72
2021/07/30 05:16:22;;;;;;;6.15;3.42;;;;;;;;;;8222782;28;20464;-73
2021/07/30 05:20:26;;;;;;;9.48;3.33;;;;;;;;;;8224564;28;20491;-72
2021/07/30 05:24:35;;;;;;;8.52;3.35;;;;;;;;;;8222575;28;20467;-73
2021/07/30 05:28:40;;;;;;;7.05;3.88;;;;;;;;;;8223988;28;20511;-73
2021/07/30 05:32:46;;;;;;;9.60;4.03;;;;;;;;;;8222960;28;20484;-73
2021/07/30 05:36:52;;;;;;;8.02;3.58;;;;;;;;;;8206056;28;20412;-73
2021/07/30 05:40:56;;;;;;;5.72;3.72;;;;;;;;;;8210711;28;20049;-72
2021/07/30 05:45:02;;;;;;;8.63;3.63;;;;;;;;;;8228766;28;20384;-73
2021/07/30 05:49:07;;;;;;;9.55;4.30;;;;;;;;;;8229907;28;20045;-72
2021/07/30 05:53:13;;;;;;;6.97;3.30;;;;;;;;;;8228130;28;20056;-73
2021/07/30 05:57:18;;;;;;;10.02;3.85;;;;;;;;;;8232304;28;20053;-74
2021/07/30 06:01:24;;;;;;;6.78;3.78;;;;;;;;;;8229009;28;20475;-74
2021/07/30 06:05:30;;;;;;;8.73;3.97;;;;;;;;;;8230514;28;20033;-72
2021/07/30 06:09:35;;;;;;;8.02;3.50;;;;;;;;;;8230311;28;20468;-73
2021/07/30 06:13:41;;;;;;;7.40;3.90;;;;;;;;;;8227713;28;20440;-73
2021/07/30 06:17:47;;;;;;;9.05;3.72;;;;;;;;;;8229556;28;20065;-74
2021/07/30 06:21:52;;;;;;;7.80;4.07;;;;;;;;;;8228748;28;20337;-73
2021/07/30 06:25:57;;;;;;;11.15;4.63;;;;;;;;;;8230526;28;20352;-73
2021/07/30 06:30:07;;;;;;;8.27;4.50;;;;;;;;;;8229351;28;20407;-74
2021/07/30 06:34:13;;;;;;;17.80;4.78;;;;;;;;;;8227800;28;20475;-73
2021/07/30 06:38:18;;;;;;;11.75;4.97;;;;;;;;;;8226504;28;20514;-73
2021/07/30 06:42:23;;;;;;;12.90;5.22;;;;;;;;;;8212067;28;20448;-73
2021/07/30 06:46:28;;;;;;;9.45;4.25;;;;;;;;;;8227202;28;20488;-73
2021/07/30 06:50:34;;;;;;;7.47;4.25;;;;;;;;;;8178792;28;20471;-73
2021/07/30 06:54:41;;;;;;;15.98;5.05;;;;;;;;;;8195943;28;20453;-73
2021/07/30 06:58:46;;;;;;;13.27;5.70;;;;;;;;;;8197103;28;20346;-74
2021/07/30 07:02:51;;;;;;;13.88;5.80;;;;;;;;;;8197635;28;20353;-75
2021/07/30 07:06:57;;;;;;;13.48;5.57;;;;;;;;;;8197352;28;20360;-74
2021/07/30 07:11:04;;;;;;;11.77;6.05;;;;;;;;;;8193459;28;20063;-74
2021/07/30 07:15:10;;;;;;;17.67;6.40;;;;;;;;;;8195101;28;20050;-74
2021/07/30 07:19:16;;;;;;;13.13;6.38;;;;;;;;;;8192755;28;20369;-76
2021/07/30 07:23:21;;;;;;;13.63;6.72;;;;;;;;;;8194170;28;20483;-74
2021/07/30 07:27:26;;;;;;;10.77;5.80;;;;;;;;;;8154741;28;20485;-75
2021/07/30 07:31:31;;;;;;;16.65;6.05;;;;;;;;;;8234237;28;20530;-71
2021/07/30 07:35:37;;;;;;;12.10;5.10;;;;;;;;;;8206891;28;20369;-75
2021/07/30 07:39:42;;;;;;;10.02;4.53;;;;;;;;;;8224529;28;20334;-74
2021/07/30 07:43:47;;;;;;;8.13;4.25;;;;;;;;;;8226524;28;20503;-74
2021/07/30 07:47:54;;;;;;;9.38;5.10;;;;;;;;;;8227001;28;20490;-75
2021/07/30 07:52:00;;;;;;;12.45;4.57;;;;;;;;;;8226888;28;20053;-75
2021/07/30 07:56:25;;;;;;;13.40;4.85;;;;;;;;;;8225539;28;20384;-73
2021/07/30 08:00:31;;;;;;;10.00;4.78;;;;;;;;;;8208597;28;20482;-76
2021/07/30 08:04:37;;;;;;;11.63;5.37;;;;;;;;;;8225501;28;20372;-74
2021/07/30 08:08:42;;;;;;;14.88;5.47;;;;;;;;;;8224563;28;20368;-75
2021/07/30 08:12:48;;;;;;;24.10;6.50;;;;;;;;;;8222724;28;20463;-75
2021/07/30 08:16:52;;;;;;;18.70;6.57;;;;;;;;;;8166319;28;20050;-75
2021/07/30 08:20:57;;;;;;;9.48;5.03;;;;;;;;;;8191473;28;20041;-75
2021/07/30 08:25:02;;;;;;;21.40;5.32;;;;;;;;;;8224681;28;20046;-74
2021/07/30 08:29:07;;;;;;;13.85;4.15;;;;;;;;;;8226272;28;20364;-74
2021/07/30 08:33:12;;;;;;;10.48;3.92;;;;;;;;;;8223482;28;20427;-75
2021/07/30 08:37:17;;;;;;;7.93;3.67;;;;;;;;;;8222476;28;20371;-75
2021/07/30 08:41:23;;;;;;;10.98;4.20;;;;;;;;;;8222396;28;20054;-75
2021/07/30 08:45:28;;;;;;;13.70;3.08;;;;;;;;;;8208583;28;20045;-75
2021/07/30 08:49:37;;;;;;;10.18;3.97;;;;;;;;;;8226200;28;20466;-72
2021/07/30 08:53:50;;;;;;;8.38;3.10;;;;;;;;;;8216934;28;20515;-73
2021/07/30 08:57:55;;;;;;;9.87;3.07;;;;;;;;;;8227539;28;20059;-73
2021/07/30 09:02:00;;;;;;;6.00;3.17;;;;;;;;;;8239439;28;20372;-74
2021/07/30 09:06:21;;;;;;;6.95;2.95;;;;;;;;;;8225384;28;20056;-74
2021/07/30 09:10:36;;;;;;;12.73;2.95;;;;;;;;;;8222464;28;20049;-74
2021/07/30 09:14:43;;;;;;;5.55;2.92;;;;;;;;;;8211587;28;20382;-74
2021/07/30 09:18:51;;;;;;;8.55;3.30;;;;;;;;;;8229012;28;20371;-74
2021/07/30 09:22:56;;;;;;;7.55;2.80;;;;;;;;;;8228377;28;20391;-73
2021/07/30 09:27:02;;;;;;;5.43;2.72;;;;;;;;;;8230253;28;20456;-73
2021/07/30 09:31:07;;;;;;;7.32;2.80;;;;;;;;;;8230543;28;20397;-73
2021/07/30 09:35:29;;;;;;;9.77;2.88;;;;;;;;;;8229475;28;20348;-72
2021/07/30 09:39:34;;;;;;;7.93;2.38;;;;;;;;;;8100134;28;20514;-73
2021/07/30 09:43:45;;;;;;;5.70;2.80;;;;;;;;;;8228118;28;20052;-74
2021/07/30 09:47:51;;;;;;;7.38;2.80;;;;;;;;;;8227681;28;20498;-73
2021/07/30 09:51:55;;;;;;;5.55;2.53;;;;;;;;;;8229229;28;20474;-74
2021/07/30 09:56:00;;;;;;;4.82;2.97;;;;;;;;;;8228838;28;20041;-75
2021/07/30 10:00:17;;;;;;;7.55;3.03;;;;;;;;;;8231279;28;20050;-74
2021/07/30 10:04:25;;;;;;;4.65;2.65;;;;;;;;;;8227621;28;20425;-72
2021/07/30 10:08:31;;;;;;;15.15;2.72;;;;;;;;;;8227722;28;20483;-73
2021/07/30 10:12:48;;;;;;;5.80;2.40;;;;;;;;;;8228820;28;20465;-73
2021/07/30 10:17:02;;;;;;;10.32;2.53;;;;;;;;;;8229006;28;20350;-73
2021/07/30 10:21:09;;;;;;;8.00;2.60;;;;;;;;;;8229507;28;20495;-73
2021/07/30 10:25:22;;;;;;;11.35;2.60;;;;;;;;;;8226048;28;20361;-74
2021/07/30 10:29:27;;;;;;;8.13;3.22;;;;;;;;;;8227851;28;20076;-75
2021/07/30 10:33:37;;;;;;;4.30;2.28;;;;;;;;;;8229177;28;20041;-74
2021/07/30 10:37:43;;;;;;;4.63;2.58;;;;;;;;;;8227038;28;20472;-73
2021/07/30 10:42:18;;;;;;;8.80;2.40;;;;;;;;;;8211887;28;20076;-74
2021/07/30 10:46:23;;;;;;;3.65;2.10;;;;;;;;;;8217256;28;20481;-74
2021/07/30 10:50:47;;;;;;;6.32;2.67;;;;;;;;;;8228545;28;20362;-74
2021/07/30 10:54:52;;;;;;;4.30;2.20;;;;;;;;;;8227900;28;20349;-74
2021/07/30 10:58:57;;;;;;;3.92;2.15;;;;;;;;;;8226990;28;20381;-73
2021/07/30 11:03:05;;;;;;;5.57;2.00;;;;;;;;;;8229280;28;20473;-74
2021/07/30 11:07:34;;;;;;;4.40;2.47;;;;;;;;;;8229883;28;20353;-74
2021/07/30 11:11:58;;;;;;;6.57;2.30;;;;;;;;;;8227576;28;20337;-73
2021/07/30 11:16:09;;;;;;;3.22;2.30;;;;;;;;;;8226170;28;20498;-74
2021/07/30 11:20:15;;;;;;;3.50;2.13;;;;;;;;;;8225704;28;20485;-74
2021/07/30 11:24:21;;;;;;;5.35;2.50;;;;;;;;;;8225070;28;20453;-75
2021/07/30 11:28:26;;;;;;;;;;;;;;;;;;8213379;28;20468;-74
2021/07/30 11:32:32;;;;;;;3.40;2.00;;;;;;;;;;8228061;28;20354;-74
2021/07/30 11:36:37;;;;;;;5.53;1.90;;;;;;;;;;8227758;28;20468;-73
2021/07/30 11:40:44;;;;;;;3.17;1.60;;;;;;;;;;8243780;28;20358;-74
2021/07/30 11:44:51;;;;;;;2.23;1.67;;;;;;;;;;8229577;28;20460;-73
2021/07/30 11:48:57;;;;;;;3.63;1.73;;;;;;;;;;8225790;28;20067;-74
2021/07/30 11:53:08;;;;;;;3.40;1.48;;;;;;;;;;8224082;28;20057;-73
2021/07/30 11:57:28;;;;;;;5.47;2.30;;;;;;;;;;8224141;28;20471;-72
2021/07/30 12:01:34;;;;;;;3.22;2.00;;;;;;;;;;8221635;28;20350;-73
2021/07/30 12:05:40;;;;;;;3.63;1.73;;;;;;;;;;8200901;28;20476;-73
2021/07/30 12:09:56;;;;;;;7.75;1.95;;;;;;;;;;8218163;28;20464;-73
2021/07/30 12:14:01;;;;;;;2.60;2.00;;;;;;;;;;8221552;28;20486;-74
2021/07/30 12:18:07;;;;;;;5.00;2.53;;;;;;;;;;8224778;28;20068;-73
2021/07/30 12:22:13;;;;;;;3.10;2.00;;;;;;;;;;8223959;28;20380;-73
2021/07/30 12:26:38;;;;;;;2.90;2.00;;;;;;;;;;8223298;28;20503;-72
2021/07/30 12:30:48;;;;;;;5.07;2.30;;;;;;;;;;8207665;28;20491;-72
2021/07/30 12:35:12;;;;;;;6.13;2.40;;;;;;;;;;8223966;28;20376;-72
2021/07/30 12:39:20;;;;;;;3.55;1.90;;;;;;;;;;8225853;28;20064;-72
2021/07/30 12:43:38;;;;;;;2.97;2.10;;;;;;;;;;8223888;28;20468;-73
2021/07/30 12:47:53;;;;;;;5.57;2.20;;;;;;;;;;8226340;28;20386;-72
2021/07/30 12:52:00;;;;;;;5.13;2.30;;;;;;;;;;8225040;28;20399;-71
2021/07/30 12:56:08;;;;;;;;;;;;;;;;;;8225876;28;20068;-74
2021/07/30 13:00:15;;;;;;;7.20;2.03;;;;;;;;;;8227379;28;20243;-73
2021/07/30 13:04:37;;;;;;;5.18;2.33;;;;;;;;;;8212710;28;20071;-73
2021/07/30 13:08:45;;;;;;;2.80;1.85;;;;;;;;;;8207737;28;20384;-73
2021/07/30 13:12:53;;;;;;;2.15;1.80;;;;;;;;;;8209255;28;20344;-73
2021/07/30 13:16:59;;;;;;;4.00;2.42;;;;;;;;;;8207573;28;20479;-75
2021/07/30 13:21:05;;;;;;;4.32;1.90;;;;;;;;;;8223928;28;20471;-72
2021/07/30 13:25:10;;;;;;;3.00;2.13;;;;;;;;;;8240764;28;20475;-75
2021/07/30 13:29:17;;;;;;;3.05;1.95;;;;;;;;;;8224218;28;20361;-74
2021/07/30 13:33:22;;;;;;;3.63;2.38;;;;;;;;;;8221501;28;20041;-75
2021/07/30 13:37:27;;;;;;;7.68;2.15;;;;;;;;;;8206789;28;20365;-74
2021/07/30 13:41:33;;;;;;;4.55;2.65;;;;;;;;;;8225590;28;20349;-72
2021/07/30 13:45:41;;;;;;;4.60;2.13;;;;;;;;;;8224305;28;20469;-71
2021/07/30 13:49:48;;;;;;;12.73;2.00;;;;;;;;;;8222607;28;20061;-71
2021/07/30 13:53:53;;;;;;;4.25;2.00;;;;;;;;;;8237646;28;20461;-74
2021/07/30 13:57:58;;;;;;;4.85;2.05;;;;;;;;;;8222019;28;20059;-74
2021/07/30 14:02:05;;;;;;;4.85;2.20;;;;;;;;;;8227724;28;20473;-73
2021/07/30 14:06:10;;;;;;;3.58;2.22;;;;;;;;;;8226901;28;20380;-74
2021/07/30 14:10:17;;;;;;;5.20;2.30;;;;;;;;;;8212906;28;20502;-73
2021/07/30 14:14:22;;;;;;;3.85;1.70;;;;;;;;;;8229196;28;20046;-72
2021/07/30 14:18:29;;;;;;;2.15;1.73;;;;;;;;;;8211384;28;20485;-73
2021/07/30 14:22:35;;;;;;;3.15;2.13;;;;;;;;;;8230164;28;20476;-73
2021/07/30 14:26:41;;;;;;;3.00;1.75;;;;;;;;;;8228415;28;20348;-73
2021/07/30 14:30:46;;;;;;;3.13;2.10;;;;;;;;;;8228006;28;20051;-74
2021/07/30 14:34:51;;;;;;;8.32;1.90;;;;;;;;;;8243214;28;20464;-72
2021/07/30 14:38:55;;;;;;;2.13;1.67;;;;;;;;;;8228417;28;20345;-73
2021/07/30 14:43:00;;;;;;;4.13;2.25;;;;;;;;;;8226902;28;20449;-74
2021/07/30 14:47:06;;;;;;;4.72;2.05;;;;;;;;;;8211113;28;20338;-72
2021/07/30 14:51:15;;;;;;;4.22;1.83;;;;;;;;;;8229079;28;20059;-73
2021/07/30 14:55:21;;;;;;;8.73;1.70;;;;;;;;;;8226475;28;20372;-74
2021/07/30 14:59:26;;;;;;;2.83;2.03;;;;;;;;;;8211654;28;20346;-73
2021/07/30 15:03:31;;;;;;;3.05;2.15;;;;;;;;;;8227963;28;20353;-72
2021/07/30 15:07:37;;;;;;;2.60;1.77;;;;;;;;;;8229683;28;20067;-71
2021/07/30 15:11:43;;;;;;;4.30;1.73;;;;;;;;;;8229622;28;20510;-73
2021/07/30 15:15:50;;;;;;;4.53;2.60;;;;;;;;;;8226270;28;20427;-73
2021/07/30 15:19:56;;;;;;;3.38;1.70;;;;;;;;;;8226758;28;20479;-73
2021/07/30 15:24:01;;;;;;;3.25;1.75;;;;;;;;;;8241324;28;20475;-74
2021/07/30 15:28:07;;;;;;;6.53;2.08;;;;;;;;;;8226665;28;20372;-73
2021/07/30 15:32:12;;;;;;;3.28;1.60;;;;;;;;;;8229002;28;20354;-72
2021/07/30 15:36:19;;;;;;;5.93;1.90;;;;;;;;;;8224548;28;20460;-72
2021/07/30 15:40:24;;;;;;;4.85;1.58;;;;;;;;;;8230603;28;20045;-73
2021/07/30 15:44:29;;;;;;;3.35;1.67;;;;;;;;;;8228100;28;20375;-74
2021/07/30 15:48:37;;;;;;;2.30;1.80;;;;;;;;;;8248933;28;20360;-74
2021/07/30 15:52:42;;;;;;;4.22;2.05;;;;;;;;;;8227924;28;20108;-71
2021/07/30 15:56:47;;;;;;;3.75;2.28;;;;;;;;;;8231128;28;20049;-72
2021/07/30 16:00:52;;;;;;;2.25;1.60;;;;;;;;;;8227160;28;20464;-74
2021/07/30 16:04:58;;;;;;;4.15;1.98;;;;;;;;;;8225731;28;20373;-72
2021/07/30 16:09:03;;;;;;;10.45;1.83;;;;;;;;;;8225907;28;20340;-72
2021/07/30 16:13:08;;;;;;;3.83;2.15;;;;;;;;;;8224873;28;20072;-72
2021/07/30 16:17:15;;;;;;;8.65;2.83;;;;;;;;;;8223530;28;20688;-71
2021/07/30 16:21:19;;;;;;;3.72;2.40;;;;;;;;;;8225029;28;20065;-72
2021/07/30 16:25:25;;;;;;;5.07;2.35;;;;;;;;;;8225379;28;20380;-71
2021/07/30 16:29:30;;;;;;;4.38;2.22;;;;;;;;;;8224811;28;20365;-72
2021/07/30 16:33:37;;;;;;;4.57;2.10;;;;;;;;;;8223232;28;20081;-71
2021/07/30 16:37:42;;;;;;;7.00;1.80;;;;;;;;;;8224007;28;20484;-74
2021/07/30 16:41:52;;;;;;;2.75;1.73;;;;;;;;;;8224432;28;20445;-71
2021/07/30 16:45:56;;;;;;;4.35;1.85;;;;;;;;;;8223140;28;20459;-71
2021/07/30 16:50:01;;;;;;;4.00;2.10;;;;;;;;;;8224756;28;20480;-72
2021/07/30 16:54:06;;;;;;;3.80;2.20;;;;;;;;;;8223737;28;20383;-72
2021/07/30 16:58:11;;;;;;;5.75;2.40;;;;;;;;;;8222805;28;20559;-73
2021/07/30 17:02:16;;;;;;;11.52;3.25;;;;;;;;;;8224070;28;20068;-72
2021/07/30 17:06:22;;;;;;;5.05;2.65;;;;;;;;;;8224841;28;20433;-71
2021/07/30 17:10:27;;;;;;;4.70;2.70;;;;;;;;;;8225282;28;20045;-70
2021/07/30 17:14:32;;;;;;;5.75;2.40;;;;;;;;;;8222896;28;20351;-71
2021/07/30 17:18:38;;;;;;;4.38;2.30;;;;;;;;;;8128484;28;20076;-72
2021/07/30 17:22:43;;;;;;;4.43;2.63;;;;;;;;;;8222246;28;20494;-71
2021/07/30 17:26:48;;;;;;;8.98;2.58;;;;;;;;;;8223625;28;20473;-71
2021/07/30 17:30:53;;;;;;;3.33;2.20;;;;;;;;;;8071723;28;20434;-72
2021/07/30 17:34:59;;;;;;;7.18;3.15;;;;;;;;;;8223996;28;20488;-71
2021/07/30 17:39:03;;;;;;;6.80;2.92;;;;;;;;;;8230333;28;20046;-72
2021/07/30 17:43:08;;;;;;;8.32;3.35;;;;;;;;;;8230150;28;20076;-72
2021/07/30 17:47:13;;;;;;;8.52;3.28;;;;;;;;;;8229988;28;20383;-72
2021/07/30 17:51:18;;;;;;;15.32;4.40;;;;;;;;;;8228599;28;20400;-71
2021/07/30 17:55:23;;;;;;;9.32;3.30;;;;;;;;;;8227756;28;20488;-72
2021/07/30 17:59:28;;;;;;;5.97;3.17;;;;;;;;;;8229968;28;20364;-72
2021/07/30 18:03:33;;;;;;;6.43;3.85;;;;;;;;;;8228933;28;20063;-72
2021/07/30 18:07:38;;;;;;;9.30;4.25;;;;;;;;;;8231030;28;20432;-71
2021/07/30 18:11:43;;;;;;;13.82;5.15;;;;;;;;;;8227786;28;20384;-72
2021/07/30 18:15:48;;;;;;;14.60;5.85;;;;;;;;;;8229502;28;20068;-72
2021/07/30 18:19:53;;;;;;;8.93;4.28;;;;;;;;;;8227652;28;20472;-72
2021/07/30 18:23:59;;;;;;;11.70;4.55;;;;;;;;;;8226941;28;20338;-71
2021/07/30 18:28:04;;;;;;;5.97;3.53;;;;;;;;;;8227234;28;20068;-72
2021/07/30 18:32:09;;;;;;;10.43;2.88;;;;;;;;;;8176621;28;20403;-71
2021/07/30 18:36:30;;;;;;;5.45;2.80;;;;;;;;;;8226923;28;20372;-73
2021/07/30 18:40:37;;;;;;;8.23;3.88;;;;;;;;;;8227351;28;20483;-73
2021/07/30 18:44:42;;;;;;;10.02;4.03;;;;;;;;;;8227980;28;20063;-71
2021/07/30 18:48:47;;;;;;;7.15;3.92;;;;;;;;;;8242958;28;20376;-71
2021/07/30 18:52:52;;;;;;;7.70;4.30;;;;;;;;;;8228152;28;20453;-71
2021/07/30 18:56:57;;;;;;;5.47;3.80;;;;;;;;;;8227106;28;20583;-72
2021/07/30 19:01:02;;;;;;;14.60;3.90;;;;;;;;;;8227655;28;20476;-72
2021/07/30 19:05:08;;;;;;;13.55;5.13;;;;;;;;;;8227184;28;20360;-71
2021/07/30 19:09:12;;;;;;;6.82;4.00;;;;;;;;;;8227433;28;20460;-71
2021/07/30 19:13:17;;;;;;;23.77;4.25;;;;;;;;;;8138114;28;20380;-71
2021/07/30 19:17:23;;;;;;;7.00;4.93;;;;;;;;;;8124515;28;20351;-72
2021/07/30 19:21:28;;;;;;;6.85;3.97;;;;;;;;;;8231040;28;20490;-71
2021/07/30 19:25:33;;;;;;;6.45;3.05;;;;;;;;;;8227298;28;20076;-72
2021/07/30 19:29:39;;;;;;;9.23;3.30;;;;;;;;;;8224616;28;20398;-71
2021/07/30 19:33:44;;;;;;;7.38;4.28;;;;;;;;;;8224865;28;20130;-72
2021/07/30 19:37:49;;;;;;;8.35;5.85;;;;;;;;;;8223925;28;20423;-71
2021/07/30 19:41:52;;;;;;;4.85;3.60;;;;;;;;;;8226204;28;20049;-71
2021/07/30 19:45:57;;;;;;;7.28;4.00;;;;;;;;;;8223942;28;20364;-71
2021/07/30 19:50:01;;;;;;;9.40;4.43;;;;;;;;;;8225414;28;20449;-71
2021/07/30 19:54:07;;;;;;;7.68;5.15;;;;;;;;;;8157684;28;21318;-72
2021/07/30 19:58:12;;;;;;;10.25;4.00;;;;;;;;;;8224432;28;20483;-71
2021/07/30 20:02:17;;;;;;;8.68;4.88;;;;;;;;;;8227956;28;20072;-71
2021/07/30 20:06:23;;;;;;;8.13;4.35;;;;;;;;;;8223667;28;20368;-71
2021/07/30 20:10:27;;;;;;;10.00;4.78;;;;;;;;;;8224839;28;20045;-71
2021/07/30 20:14:32;;;;;;;6.63;3.78;;;;;;;;;;8208063;28;20356;-72
2021/07/30 20:18:38;;;;;;;6.57;3.40;;;;;;;;;;8223373;28;21272;-71
2021/07/30 20:22:43;;;;;;;6.55;3.83;;;;;;;;;;8243252;28;20461;-71
2021/07/30 20:26:48;;;;;;;8.05;4.18;;;;;;;;;;8223907;28;20045;-72
2021/07/30 20:30:53;;;;;;;6.65;3.85;;;;;;;;;;8224046;28;20472;-72
2021/07/30 20:34:58;;;;;;;6.88;3.38;;;;;;;;;;8222683;28;20058;-72
2021/07/30 20:39:02;;;;;;;12.38;4.10;;;;;;;;;;8224220;28;20464;-71
2021/07/30 20:43:07;;;;;;;5.88;3.75;;;;;;;;;;8227704;28;20372;-71
2021/07/30 20:47:11;;;;;;;10.00;3.97;;;;;;;;;;8224926;28;20468;-72
2021/07/30 20:51:20;;;;;;;8.73;4.90;;;;;;;;;;8224861;28;20395;-72
2021/07/30 20:55:23;;;;;;;7.47;4.20;;;;;;;;;;8223935;28;20049;-72
2021/07/30 20:59:28;;;;;;;5.47;3.67;;;;;;;;;;8224421;28;20462;-72
2021/07/30 21:03:32;;;;;;;7.95;4.10;;;;;;;;;;8223562;28;20353;-71
2021/07/30 21:07:37;;;;;;;9.05;3.78;;;;;;;;;;8223445;28;20061;-72
2021/07/30 21:11:45;;;;;;;7.82;4.00;;;;;;;;;;8229144;28;20383;-73
2021/07/30 21:15:54;;;;;;;11.48;4.30;;;;;;;;;;8229761;28;20384;-72
2021/07/30 21:19:58;;;;;;;10.88;4.07;;;;;;;;;;8231871;28;20511;-72
2021/07/30 21:24:04;;;;;;;6.65;3.70;;;;;;;;;;8232351;28;20372;-72
2021/07/30 21:28:09;;;;;;;6.50;4.00;;;;;;;;;;8231103;28;20467;-72
2021/07/30 21:32:14;;;;;;;5.20;3.47;;;;;;;;;;8231931;28;20099;-72
2021/07/30 21:36:19;;;;;;;11.30;3.88;;;;;;;;;;8231258;28;20411;-72
2021/07/30 21:40:24;;;;;;;8.13;3.92;;;;;;;;;;8240038;28;20456;-73
2021/07/30 21:44:28;;;;;;;9.45;4.30;;;;;;;;;;8239556;28;20042;-73
2021/07/30 21:48:33;;;;;;;6.70;4.35;;;;;;;;;;8231551;28;20372;-72
2021/07/30 21:52:38;;;;;;;11.30;6.20;;;;;;;;;;8228917;28;20349;-73
2021/07/30 21:56:43;;;;;;;8.30;5.00;;;;;;;;;;8232583;28;20062;-73
2021/07/30 22:00:48;;;;;;;8.57;5.20;;;;;;;;;;8230685;28;20364;-72
2021/07/30 22:04:53;;;;;;;10.38;5.72;;;;;;;;;;8230642;28;20346;-72
2021/07/30 22:08:58;;;;;;;8.93;5.15;;;;;;;;;;8229621;28;20384;-71
2021/07/30 22:13:03;;;;;;;8.77;5.35;;;;;;;;;;8229704;28;20457;-72
2021/07/30 22:17:08;;;;;;;9.00;4.60;;;;;;;;;;8230514;28;20428;-72
2021/07/30 22:21:14;;;;;;;14.10;4.50;;;;;;;;;;8230124;28;20045;-72
2021/07/30 22:25:20;;;;;;;6.93;4.40;;;;;;;;;;8229800;28;20049;-71
2021/07/30 22:29:25;;;;;;;12.07;5.50;;;;;;;;;;8229603;28;20476;-72
2021/07/30 22:33:33;;;;;;;7.82;4.50;;;;;;;;;;8229295;28;20491;-72
2021/07/30 22:37:38;;;;;;;9.13;4.28;;;;;;;;;;8227574;28;20360;-72
2021/07/30 22:41:50;;;;;;;6.45;4.53;;;;;;;;;;8227643;28;20484;-72
2021/07/30 22:45:56;;;;;;;8.27;4.38;;;;;;;;;;8228010;28;20342;-71
2021/07/30 22:50:04;;;;;;;7.80;4.00;;;;;;;;;;8227199;28;20392;-71
2021/07/30 22:54:09;;;;;;;14.07;4.25;;;;;;;;;;8227632;28;20379;-73
2021/07/30 22:58:14;;;;;;;9.48;5.00;;;;;;;;;;8228593;28;20487;-73
2021/07/30 23:02:20;;;;;;;8.23;5.07;;;;;;;;;;8227114;28;20392;-72
2021/07/30 23:06:25;;;;;;;8.60;4.60;;;;;;;;;;8227694;28;20380;-71
2021/07/30 23:10:30;;;;;;;6.90;4.55;;;;;;;;;;8227484;28;20076;-72
2021/07/30 23:14:35;;;;;;;5.60;4.15;;;;;;;;;;8229042;28;20348;-73
2021/07/30 23:18:43;;;;;;;10.45;4.78;;;;;;;;;;8225856;28;20341;-72
2021/07/30 23:22:47;;;;;;;7.60;4.15;;;;;;;;;;8226659;28;20456;-72
2021/07/30 23:26:52;;;;;;;9.35;4.57;;;;;;;;;;8225581;28;20372;-73
2021/07/30 23:30:58;;;;;;;7.30;4.65;;;;;;;;;;8227034;28;20361;-71
2021/07/30 23:35:02;;;;;;;7.07;4.35;;;;;;;;;;8227075;28;20483;-72
2021/07/30 23:39:06;;;;;;;6.38;4.05;;;;;;;;;;8224902;28;20339;-72
2021/07/30 23:43:12;;;;;;;7.65;4.80;;;;;;;;;;8227201;28;20491;-72
2021/07/30 23:47:17;;;;;;;6.97;4.60;;;;;;;;;;8224970;28;20380;-72
2021/07/30 23:51:22;;;;;;;12.55;4.20;;;;;;;;;;8227262;28;20665;-72
2021/07/30 23:55:27;;;;;;;9.48;4.63;;;;;;;;;;8228085;28;20492;-73
2021/07/30 23:59:32;;;;;;;6.95;4.07;;;;;;;;;;8226223;28;20071;-72
